Time;durP1;ratioP1;P1;durP2;ratioP2;P2;SDS_P1;SDS_P2;PMS_P1;PMS_P2;Temp;Humidity;BMP_temperature;BMP_pressure;BME280_temperature;BME280_humidity;BME280_pressure;Samples;Min_cycle;Max_cycle;Signal;HPM_P1;HPM_P2
2023/01/30 00:04:46;;;;;;;9.18;6.20;;;;;;;7.88;100.00;101765.25;10418526;28;20033;-67
2023/01/30 00:09:47;;;;;;;14.98;7.70;;;;;;;7.89;100.00;101764.28;10420741;28;20171;-68
2023/01/30 00:14:47;;;;;;;10.35;6.68;;;;;;;7.94;100.00;101753.84;10453204;28;20397;-68
2023/01/30 00:19:48;;;;;;;11.23;4.63;;;;;;;7.85;100.00;101749.44;10420980;28;20076;-67
2023/01/30 00:24:48;;;;;;;12.77;6.78;;;;;;;7.81;100.00;101750.72;10420139;28;20030;-67
2023/01/30 00:29:48;;;;;;;14.85;6.72;;;;;;;7.85;100.00;101752.13;10420095;28;20033;-67
2023/01/30 00:34:49;;;;;;;6.10;5.38;;;;;;;7.85;100.00;101727.84;10422118;28;20373;-67
2023/01/30 00:39:49;;;;;;;11.98;6.65;;;;;;;7.87;100.00;101734.75;10419794;28;20041;-67
2023/01/30 00:50:09;;;;;;;18.25;6.22;;;;;;;7.82;100.00;101717.38;10420498;28;20038;-68
2023/01/30 00:55:09;;;;;;;10.25;5.28;;;;;;;7.85;100.00;101717.06;10418859;28;20045;-67
2023/01/30 01:00:10;;;;;;;7.97;4.47;;;;;;;7.85;100.00;101698.19;10426394;28;20119;-67
2023/01/30 01:05:11;;;;;;;10.70;4.65;;;;;;;7.76;100.00;101659.53;10423535;28;20060;-68
2023/01/30 01:10:15;;;;;;;7.68;4.97;;;;;;;7.69;100.00;101635.09;10424186;28;20041;-67
2023/01/30 01:15:15;;;;;;;5.97;3.72;;;;;;;7.60;100.00;101638.72;10424544;28;20042;-67
2023/01/30 01:20:16;;;;;;;10.73;4.65;;;;;;;7.63;100.00;101649.19;10425714;28;20061;-68
2023/01/30 01:25:18;;;;;;;10.07;5.45;;;;;;;7.58;100.00;101642.59;10422451;28;20037;-67
2023/01/30 01:30:18;;;;;;;6.53;4.70;;;;;;;7.57;100.00;101654.38;10459506;28;20033;-68
2023/01/30 01:35:18;;;;;;;7.63;4.82;;;;;;;7.61;100.00;101645.81;10457309;28;20037;-68
2023/01/30 01:45:38;;;;;;;4.53;3.90;;;;;;;7.70;100.00;101662.88;10419858;28;20473;-67
2023/01/30 01:50:47;;;;;;;6.13;3.83;;;;;;;7.72;100.00;101654.63;10418761;28;20041;-67
2023/01/30 01:55:48;;;;;;;5.82;4.80;;;;;;;7.65;100.00;101660.66;10432102;28;20022;-67
2023/01/30 02:00:49;;;;;;;14.38;4.60;;;;;;;7.60;100.00;101656.75;10419181;28;20315;-68
2023/01/30 02:05:51;;;;;;;17.08;4.88;;;;;;;7.51;100.00;101660.41;10420373;28;20030;-68
2023/01/30 02:11:10;;;;;;;12.15;4.20;;;;;;;7.50;100.00;101658.69;10418088;28;20036;-69
2023/01/30 02:16:10;;;;;;;10.02;5.22;;;;;;;7.50;100.00;101656.00;10421349;28;20033;-67
2023/01/30 02:21:42;;;;;;;5.78;3.53;;;;;;;7.54;100.00;101647.44;10425708;28;20068;-67
2023/01/30 02:27:04;;;;;;;9.88;5.13;;;;;;;7.67;100.00;101628.16;10455604;28;20502;-67
2023/01/30 02:32:18;;;;;;;20.67;3.63;;;;;;;7.67;100.00;101615.50;10424677;28;20033;-68
2023/01/30 02:37:49;;;;;;;19.55;4.63;;;;;;;7.73;100.00;101632.91;10456533;28;20025;-68
2023/01/30 02:42:59;;;;;;;15.18;4.32;;;;;;;7.66;100.00;101626.47;10420774;28;20042;-68
2023/01/30 02:48:06;;;;;;;13.57;4.53;;;;;;;7.65;100.00;101630.16;10452296;28;20040;-67
2023/01/30 02:53:06;;;;;;;;;;;;;;;7.66;100.00;101632.69;10449740;28;20087;-67
2023/01/30 02:58:07;;;;;;;19.67;4.25;;;;;;;7.73;100.00;101621.28;10433781;28;20066;-67
2023/01/30 03:03:11;;;;;;;11.60;3.90;;;;;;;7.74;100.00;101622.97;10420139;28;20064;-68
2023/01/30 03:08:30;;;;;;;15.30;4.97;;;;;;;7.73;100.00;101627.50;10419503;28;20052;-67
2023/01/30 03:13:36;;;;;;;17.98;5.63;;;;;;;7.79;100.00;101621.47;10420807;28;20412;-67
2023/01/30 03:18:40;;;;;;;6.72;4.03;;;;;;;7.81;100.00;101616.75;10450656;28;20036;-68
2023/01/30 03:23:40;;;;;;;9.35;3.90;;;;;;;7.80;100.00;101625.00;10449769;28;20037;-67
2023/01/30 03:28:41;;;;;;;10.18;4.03;;;;;;;7.84;100.00;101623.69;10418667;28;20037;-67
2023/01/30 03:33:41;;;;;;;13.07;4.80;;;;;;;7.85;100.00;101622.69;10416710;28;20080;-67
2023/01/30 03:38:42;;;;;;;7.65;3.72;;;;;;;7.80;100.00;101608.84;10451370;28;20025;-67
2023/01/30 03:43:42;;;;;;;11.48;4.35;;;;;;;7.73;100.00;101615.88;10423659;28;20040;-67
2023/01/30 03:48:42;;;;;;;8.32;4.43;;;;;;;7.71;100.00;101618.72;10422929;28;20052;-67
2023/01/30 03:53:43;;;;;;;19.27;5.40;;;;;;;7.74;100.00;101626.50;10421953;28;20497;-67
2023/01/30 03:58:43;;;;;;;25.77;5.32;;;;;;;7.72;100.00;101619.56;10422918;28;20061;-68
2023/01/30 04:03:43;;;;;;;11.35;4.68;;;;;;;7.73;100.00;101605.94;10427803;28;20068;-67
2023/01/30 04:08:44;;;;;;;18.33;5.53;;;;;;;7.62;100.00;101623.22;10439783;28;20030;-67
2023/01/30 04:13:44;;;;;;;21.42;6.10;;;;;;;7.43;100.00;101623.47;10422512;28;20045;-67
2023/01/30 04:18:45;;;;;;;14.75;5.60;;;;;;;7.23;100.00;101612.06;10426166;28;20119;-67
2023/01/30 04:23:45;;;;;;;10.15;4.18;;;;;;;7.11;100.00;101616.84;10442021;28;20044;-68
2023/01/30 04:28:45;;;;;;;9.55;3.55;;;;;;;7.10;100.00;101635.88;10425721;28;20061;-67
2023/01/30 04:33:46;;;;;;;21.42;2.97;;;;;;;6.99;100.00;101640.50;10424247;28;20041;-67
2023/01/30 04:38:46;;;;;;;15.05;4.55;;;;;;;7.16;100.00;101640.63;10421120;28;20040;-67
2023/01/30 04:43:46;;;;;;;12.40;5.15;;;;;;;7.43;100.00;101658.47;10421300;28;20041;-67
2023/01/30 04:48:47;;;;;;;10.85;3.55;;;;;;;7.67;100.00;101652.41;10419745;28;20042;-68
2023/01/30 04:53:47;;;;;;;12.13;3.63;;;;;;;7.78;100.00;101652.13;10404072;28;20350;-67
2023/01/30 04:58:48;;;;;;;14.48;3.92;;;;;;;7.87;100.00;101661.09;10420459;28;20029;-68
2023/01/30 05:03:52;;;;;;;18.45;3.38;;;;;;;7.75;100.00;101667.78;10421637;28;20087;-67
2023/01/30 05:08:53;;;;;;;12.32;3.53;;;;;;;7.51;100.00;101661.25;10421975;28;20087;-69
2023/01/30 05:13:54;;;;;;;9.70;4.07;;;;;;;7.40;100.00;101672.28;10453799;28;20108;-67
2023/01/30 05:18:54;;;;;;;9.73;3.60;;;;;;;7.26;100.00;101662.09;10451445;28;20140;-67
2023/01/30 05:23:55;;;;;;;11.75;4.95;;;;;;;7.09;100.00;101667.34;10423758;28;20103;-67
2023/01/30 05:28:56;;;;;;;9.13;3.80;;;;;;;6.92;100.00;101669.06;10419301;28;20366;-66
2023/01/30 05:33:56;;;;;;;19.20;4.63;;;;;;;6.75;100.00;101664.50;10421978;28;20030;-67
2023/01/30 05:38:57;;;;;;;9.63;3.80;;;;;;;6.61;100.00;101667.75;10440416;28;20041;-68
2023/01/30 05:43:57;;;;;;;10.18;4.55;;;;;;;6.47;100.00;101691.47;10421059;28;20487;-67
2023/01/30 05:48:57;;;;;;;18.77;6.75;;;;;;;6.41;100.00;101684.00;10421881;28;20036;-67
2023/01/30 05:53:58;;;;;;;34.53;6.15;;;;;;;6.38;100.00;101683.47;10421355;28;20060;-68
2023/01/30 05:58:59;;;;;;;14.57;5.93;;;;;;;6.24;100.00;101682.97;10418695;28;20040;-68
2023/01/30 06:03:59;;;;;;;23.45;7.35;;;;;;;6.19;100.00;101687.09;10432024;28;20026;-67
2023/01/30 06:09:00;;;;;;;29.67;8.57;;;;;;;6.11;100.00;101695.94;10417156;28;20088;-70
2023/01/30 06:14:00;;;;;;;9.13;4.28;;;;;;;6.03;100.00;101703.88;10417564;28;20061;-69
2023/01/30 06:19:00;;;;;;;22.42;5.85;;;;;;;5.93;100.00;101684.25;10417147;28;20049;-68
2023/01/30 06:24:01;;;;;;;17.77;5.28;;;;;;;5.97;100.00;101680.31;10416517;28;20057;-68
2023/01/30 06:29:01;;;;;;;28.30;6.40;;;;;;;6.01;100.00;101681.69;10415146;28;20029;-68
2023/01/30 06:34:02;;;;;;;19.52;6.10;;;;;;;5.98;100.00;101685.50;10417014;28;20041;-69
2023/01/30 06:39:02;;;;;;;12.73;5.30;;;;;;;5.92;100.00;101678.00;10416245;28;20424;-68
2023/01/30 06:44:03;;;;;;;27.98;6.38;;;;;;;5.94;100.00;101678.75;10416355;28;20033;-68
2023/01/30 06:49:03;;;;;;;28.83;6.45;;;;;;;5.92;100.00;101683.38;10415660;28;20037;-68
2023/01/30 06:54:04;;;;;;;22.27;5.10;;;;;;;5.88;100.00;101708.03;10414984;28;20068;-67
2023/01/30 06:59:04;;;;;;;22.52;6.18;;;;;;;5.90;100.00;101714.09;10416199;28;20037;-69
2023/01/30 07:04:04;;;;;;;22.63;5.13;;;;;;;5.91;100.00;101708.59;10414449;28;20037;-69
2023/01/30 07:09:05;;;;;;;28.55;4.88;;;;;;;5.87;100.00;101726.00;10414249;28;20089;-68
2023/01/30 07:14:05;;;;;;;22.63;5.28;;;;;;;5.91;100.00;101729.25;10430055;28;20041;-67
2023/01/30 07:19:05;;;;;;;23.35;5.97;;;;;;;5.87;100.00;101727.81;10414195;28;20568;-67
2023/01/30 07:24:06;;;;;;;23.70;5.75;;;;;;;5.91;100.00;101750.75;10415550;28;20034;-68
2023/01/30 07:29:07;;;;;;;16.75;6.15;;;;;;;5.81;100.00;101743.56;10414364;28;20408;-67
2023/01/30 07:34:07;;;;;;;19.40;5.25;;;;;;;5.95;100.00;101760.25;10413293;28;20046;-70
2023/01/30 07:39:08;;;;;;;15.10;5.30;;;;;;;5.97;100.00;101751.03;10412510;28;20492;-69
2023/01/30 07:44:08;;;;;;;13.20;5.60;;;;;;;6.10;100.00;101739.97;10413709;28;20120;-69
2023/01/30 07:49:09;;;;;;;11.50;4.65;;;;;;;6.18;100.00;101725.75;10414194;28;20030;-68
2023/01/30 07:54:09;;;;;;;14.50;4.78;;;;;;;6.26;100.00;101748.22;10414144;28;20061;-68
2023/01/30 07:59:10;;;;;;;12.50;5.05;;;;;;;6.38;100.00;101748.03;10446106;28;20044;-68
2023/01/30 08:04:10;;;;;;;15.38;4.30;;;;;;;6.65;100.00;101763.31;10412660;28;20041;-67
2023/01/30 08:09:11;;;;;;;22.15;5.35;;;;;;;6.99;100.00;101791.31;10414530;28;20037;-69
2023/01/30 08:14:11;;;;;;;14.52;4.88;;;;;;;7.34;100.00;101780.69;10413863;28;20068;-66
2023/01/30 08:19:12;;;;;;;10.45;4.35;;;;;;;7.65;100.00;101779.25;10412323;28;20148;-66
2023/01/30 08:24:12;;;;;;;11.82;4.85;;;;;;;7.95;100.00;101793.31;10414891;28;20095;-67
2023/01/30 08:29:13;;;;;;;18.13;5.00;;;;;;;8.11;100.00;101790.72;10420560;28;20048;-67
2023/01/30 08:34:13;;;;;;;14.85;4.97;;;;;;;8.38;100.00;101791.56;10422568;28;20351;-67
2023/01/30 08:39:13;;;;;;;11.32;4.63;;;;;;;8.69;98.71;101791.84;10438164;28;20073;-67
2023/01/30 08:44:14;;;;;;;15.88;5.15;;;;;;;8.96;97.11;101804.25;10421415;28;20034;-68
2023/01/30 08:49:15;;;;;;;10.27;4.63;;;;;;;8.69;95.02;101818.03;10422057;28;20044;-67
2023/01/30 08:54:15;;;;;;;21.08;4.72;;;;;;;8.70;95.95;101847.53;10421030;28;20025;-68
2023/01/30 08:59:15;;;;;;;8.77;3.92;;;;;;;8.36;95.24;101829.47;10421515;28;20140;-66
2023/01/30 09:04:16;;;;;;;17.20;5.40;;;;;;;8.99;97.12;101852.56;10420015;28;20071;-67
2023/01/30 09:09:16;;;;;;;20.77;5.10;;;;;;;8.74;93.47;101839.97;10418627;28;20046;-67
2023/01/30 09:14:18;;;;;;;28.48;5.40;;;;;;;9.34;91.63;101849.78;10418994;28;20465;-67
2023/01/30 09:19:19;;;;;;;21.35;5.18;;;;;;;9.98;94.91;101848.97;10419799;28;20058;-67
2023/01/30 09:24:19;;;;;;;17.85;4.22;;;;;;;10.55;86.59;101841.78;10420554;28;20405;-68
2023/01/30 09:29:20;;;;;;;13.07;4.65;;;;;;;9.98;85.95;101862.50;10451164;28;20041;-67
2023/01/30 09:34:20;;;;;;;9.35;3.75;;;;;;;9.75;90.85;101865.03;10452046;28;20045;-67
2023/01/30 09:39:21;;;;;;;4.97;2.58;;;;;;;9.19;88.35;101857.66;10418611;28;20030;-66
2023/01/30 09:44:39;;;;;;;10.13;4.35;;;;;;;8.90;91.55;101890.50;10450235;28;20042;-68
2023/01/30 09:49:49;;;;;;;25.02;4.63;;;;;;;8.80;91.69;101896.03;10419195;28;20041;-67
2023/01/30 09:54:59;;;;;;;14.82;4.07;;;;;;;8.93;94.00;101901.81;10418300;28;20029;-67
2023/01/30 10:00:04;;;;;;;16.52;4.75;;;;;;;9.29;93.49;101897.09;10434107;28;20033;-67
2023/01/30 10:05:05;;;;;;;11.65;4.30;;;;;;;9.30;90.78;101911.44;10448690;28;20033;-67
2023/01/30 10:10:14;;;;;;;17.27;4.03;;;;;;;9.54;91.78;101916.91;10417162;28;20036;-67
2023/01/30 10:15:50;;;;;;;19.42;5.30;;;;;;;9.51;91.28;101928.06;10416574;28;20496;-67
2023/01/30 10:20:56;;;;;;;21.83;5.18;;;;;;;9.36;89.94;101945.09;10415223;28;20113;-68
2023/01/30 10:26:20;;;;;;;15.57;4.90;;;;;;;9.41;93.16;101938.19;10416449;28;20521;-67
2023/01/30 10:31:21;;;;;;;19.83;4.82;;;;;;;9.40;89.23;101957.25;10415845;28;20120;-66
2023/01/30 10:36:28;;;;;;;17.65;4.15;;;;;;;9.03;91.95;101955.72;10415753;28;20080;-67
2023/01/30 10:41:31;;;;;;;12.18;4.85;;;;;;;8.88;93.37;101951.97;10432856;28;20037;-67
2023/01/30 10:47:14;;;;;;;14.18;4.97;;;;;;;8.82;93.01;101958.84;10432870;28;20030;-67
2023/01/30 10:52:36;;;;;;;26.30;5.22;;;;;;;8.75;93.16;101957.81;10418631;28;20045;-67
2023/01/30 10:57:57;;;;;;;17.50;5.03;;;;;;;8.59;94.08;101967.50;10431935;28;20088;-67
2023/01/30 11:03:08;;;;;;;16.90;5.40;;;;;;;8.85;93.43;101970.19;10443936;28;20036;-67
2023/01/30 11:08:19;;;;;;;28.92;5.75;;;;;;;9.62;92.36;101972.88;10449483;28;20132;-66
2023/01/30 11:13:23;;;;;;;20.48;5.43;;;;;;;10.29;91.24;101967.41;10415795;28;20033;-67
2023/01/30 11:18:24;;;;;;;18.85;5.00;;;;;;;10.71;85.95;101966.34;10414817;28;20037;-66
2023/01/30 11:23:46;;;;;;;18.23;4.57;;;;;;;10.01;86.95;101983.91;10446393;28;20050;-67
2023/01/30 11:28:46;;;;;;;18.35;5.13;;;;;;;9.52;90.98;101967.59;10414398;28;20132;-66
2023/01/30 11:34:24;;;;;;;28.60;6.18;;;;;;;9.34;92.79;101963.31;10345469;28;20057;-68
2023/01/30 11:39:27;;;;;;;18.58;5.07;;;;;;;9.18;91.97;101975.75;10412902;28;20488;-68
2023/01/30 11:44:29;;;;;;;10.27;4.57;;;;;;;9.43;94.56;101984.81;10413678;28;20037;-67
2023/01/30 11:49:32;;;;;;;18.05;6.43;;;;;;;9.96;94.40;101970.06;10447607;28;20470;-67
2023/01/30 11:54:40;;;;;;;23.05;6.82;;;;;;;10.96;89.01;101960.88;10445144;28;20026;-67
2023/01/30 11:59:48;;;;;;;15.38;5.53;;;;;;;10.92;91.09;101950.38;10432255;28;20030;-67
2023/01/30 12:04:55;;;;;;;25.88;6.05;;;;;;;10.43;88.85;101972.16;10421589;28;20025;-66
2023/01/30 12:09:56;;;;;;;20.60;6.28;;;;;;;10.13;90.28;101965.50;10437143;28;20125;-67
2023/01/30 12:15:15;;;;;;;24.60;6.07;;;;;;;10.30;90.83;101968.25;10438112;28;20160;-67
2023/01/30 12:20:34;;;;;;;19.20;8.05;;;;;;;10.55;92.55;101975.34;10421718;28;20132;-68
2023/01/30 12:25:51;;;;;;;12.07;6.43;;;;;;;10.36;88.48;101965.69;10420739;28;20037;-67
2023/01/30 12:30:57;;;;;;;15.95;5.63;;;;;;;10.09;89.47;101971.44;10449382;28;20059;-68
2023/01/30 12:36:22;;;;;;;11.02;5.55;;;;;;;10.41;91.40;101974.16;10436082;28;20030;-67
2023/01/30 12:41:37;;;;;;;20.00;6.38;;;;;;;10.75;88.25;101973.09;10452892;28;20029;-67
2023/01/30 12:47:09;;;;;;;13.85;4.53;;;;;;;11.05;83.86;101963.38;10419531;28;20099;-67
2023/01/30 12:52:53;;;;;;;15.35;5.82;;;;;;;11.02;85.40;101973.72;10448741;28;20033;-67
2023/01/30 12:58:01;;;;;;;17.02;5.40;;;;;;;10.98;87.96;101988.66;10444956;28;20484;-67
2023/01/30 13:03:25;;;;;;;15.95;5.40;;;;;;;10.91;81.41;101985.75;10452679;28;20030;-68
2023/01/30 13:09:01;;;;;;;20.45;6.68;;;;;;;10.91;84.29;101983.94;10452025;28;20111;-67
2023/01/30 13:14:26;;;;;;;30.33;5.55;;;;;;;10.79;84.16;101993.44;10447108;28;20029;-67
2023/01/30 13:19:48;;;;;;;12.20;4.97;;;;;;;10.93;87.75;102008.97;10450483;28;20042;-68
2023/01/30 13:25:03;;;;;;;19.48;5.90;;;;;;;10.95;84.68;102014.22;10419398;28;20433;-69
2023/01/30 13:30:05;;;;;;;24.77;5.70;;;;;;;10.36;85.64;102003.59;10419055;28;20537;-68
2023/01/30 13:35:08;;;;;;;34.78;7.57;;;;;;;10.11;89.81;102023.53;10417462;28;20063;-67
2023/01/30 13:40:24;;;;;;;15.45;6.22;;;;;;;10.15;89.92;102033.03;10433462;28;20037;-67
2023/01/30 13:45:29;;;;;;;14.05;4.57;;;;;;;9.85;88.46;102043.41;10449782;28;20052;-67
2023/01/30 13:50:51;;;;;;;15.60;5.00;;;;;;;9.68;88.83;102060.63;10417851;28;20045;-67
2023/01/30 13:56:32;;;;;;;23.55;5.75;;;;;;;9.47;90.75;102069.97;10418781;28;20041;-67
2023/01/30 14:02:02;;;;;;;16.20;4.82;;;;;;;9.43;90.30;102063.22;10416085;28;20477;-68
2023/01/30 14:07:08;;;;;;;19.05;5.45;;;;;;;9.55;91.72;102069.19;10415905;28;20045;-68
2023/01/30 14:12:17;;;;;;;24.95;5.10;;;;;;;9.24;91.67;102082.38;10417080;28;20128;-68
2023/01/30 14:17:17;;;;;;;23.25;6.47;;;;;;;9.15;92.61;102097.66;10416005;28;20033;-69
2023/01/30 14:22:23;;;;;;;15.02;5.55;;;;;;;9.20;93.36;102097.22;10415957;28;20133;-68
2023/01/30 14:27:26;;;;;;;27.00;6.13;;;;;;;9.51;92.97;102108.38;10417616;28;20044;-68
2023/01/30 14:32:52;;;;;;;16.25;4.68;;;;;;;9.54;93.54;102113.47;10414121;28;20045;-67
2023/01/30 14:38:12;;;;;;;21.63;5.15;;;;;;;9.26;92.58;102120.91;10414191;28;20038;-68
2023/01/30 14:43:16;;;;;;;20.75;6.30;;;;;;;9.02;93.93;102138.63;10431063;28;20116;-69
2023/01/30 14:48:35;;;;;;;23.38;6.88;;;;;;;9.28;96.05;102159.41;10414550;28;20457;-69
2023/01/30 14:53:46;;;;;;;10.23;6.00;;;;;;;9.14;95.64;102170.81;10415047;28;20029;-69
2023/01/30 14:58:51;;;;;;;25.33;6.35;;;;;;;8.81;96.26;102160.56;10415166;28;20037;-69
2023/01/30 15:03:51;;;;;;;17.52;6.97;;;;;;;8.58;97.16;102189.03;10415429;28;20041;-67
2023/01/30 15:08:52;;;;;;;18.48;6.95;;;;;;;8.45;98.21;102192.09;10415119;28;20033;-67
2023/01/30 15:14:06;;;;;;;28.42;6.90;;;;;;;8.33;98.88;102201.41;10446843;28;20049;-67
2023/01/30 15:19:15;;;;;;;29.92;6.25;;;;;;;8.18;99.89;102198.34;10414857;28;20029;-69
2023/01/30 15:24:26;;;;;;;21.73;7.68;;;;;;;8.01;100.00;102205.38;10414941;28;20038;-68
2023/01/30 15:29:57;;;;;;;20.67;6.63;;;;;;;7.90;100.00;102211.81;10445710;28;20040;-68
2023/01/30 15:34:59;;;;;;;22.98;8.18;;;;;;;7.97;100.00;102232.78;10419012;28;20119;-68
2023/01/30 15:40:15;;;;;;;17.42;5.88;;;;;;;7.85;100.00;102248.31;10438733;28;20052;-68
2023/01/30 15:45:18;;;;;;;13.88;5.15;;;;;;;7.77;100.00;102248.19;10422912;28;20065;-68
2023/01/30 15:50:18;;;;;;;30.52;7.15;;;;;;;7.74;100.00;102246.63;10422463;28;20061;-68
2023/01/30 15:55:24;;;;;;;18.45;6.97;;;;;;;7.75;100.00;102256.41;10423468;28;20140;-68
2023/01/30 16:00:32;;;;;;;33.10;6.88;;;;;;;7.75;100.00;102260.97;10420911;28;20037;-69
2023/01/30 16:05:33;;;;;;;25.65;6.80;;;;;;;7.67;100.00;102261.69;10454354;28;20455;-68
2023/01/30 16:10:33;;;;;;;33.80;7.53;;;;;;;7.57;100.00;102280.59;10423508;28;20068;-68
2023/01/30 16:15:35;;;;;;;14.65;5.85;;;;;;;7.38;100.00;102277.91;10436637;28;20080;-67
2023/01/30 16:20:44;;;;;;;30.08;9.43;;;;;;;7.48;100.00;102291.38;10437267;28;20053;-67
2023/01/30 16:25:45;;;;;;;43.95;7.60;;;;;;;7.46;100.00;102286.97;10422153;28;20071;-68
2023/01/30 16:30:45;;;;;;;28.98;7.28;;;;;;;7.51;100.00;102301.88;10421362;28;20527;-68
2023/01/30 16:35:46;;;;;;;27.70;8.07;;;;;;;7.53;100.00;102316.91;10421045;28;20029;-68
2023/01/30 16:40:46;;;;;;;32.80;8.27;;;;;;;7.44;100.00;102307.84;10420889;28;20038;-69
2023/01/30 16:45:46;;;;;;;18.67;5.63;;;;;;;7.33;100.00;102325.97;10418651;28;20060;-69
2023/01/30 16:50:59;;;;;;;37.55;8.10;;;;;;;7.20;100.00;102328.94;10420677;28;20104;-67
2023/01/30 16:56:08;;;;;;;22.05;6.97;;;;;;;7.12;100.00;102339.59;10420037;28;20040;-68
2023/01/30 17:01:09;;;;;;;22.13;8.13;;;;;;;6.93;100.00;102332.31;10451120;28;20045;-67
2023/01/30 17:06:17;;;;;;;29.70;7.15;;;;;;;6.72;100.00;102343.16;10419685;28;20060;-68
2023/01/30 17:11:29;;;;;;;15.80;5.25;;;;;;;6.64;100.00;102362.72;10433274;28;20030;-67
2023/01/30 17:16:33;;;;;;;32.50;6.15;;;;;;;6.51;100.00;102367.47;10419255;28;20091;-68
2023/01/30 17:21:49;;;;;;;17.92;5.53;;;;;;;6.32;100.00;102379.00;10420234;28;20050;-68
2023/01/30 17:26:51;;;;;;;28.80;6.57;;;;;;;6.50;100.00;102409.66;10417578;28;20477;-67
2023/01/30 17:31:53;;;;;;;24.77;6.88;;;;;;;6.62;100.00;102407.75;10418713;28;20033;-68
2023/01/30 17:36:53;;;;;;;15.45;5.45;;;;;;;6.51;100.00;102400.63;10450174;28;20040;-68
2023/01/30 17:41:54;;;;;;;23.17;6.70;;;;;;;6.42;100.00;102414.03;10417322;28;20478;-68
2023/01/30 17:46:54;;;;;;;10.73;4.85;;;;;;;6.32;100.00;102431.91;10418937;28;20041;-68
2023/01/30 17:51:55;;;;;;;14.82;5.93;;;;;;;6.24;100.00;102438.81;10449633;28;20164;-68
2023/01/30 17:56:59;;;;;;;30.83;5.18;;;;;;;6.10;100.00;102423.03;10449563;28;20041;-68
2023/01/30 18:01:59;;;;;;;18.30;6.10;;;;;;;6.06;100.00;102429.63;10432914;28;20021;-68
2023/01/30 18:07:03;;;;;;;17.20;5.22;;;;;;;6.01;100.00;102434.56;10431493;28;20045;-68
2023/01/30 18:12:03;;;;;;;16.77;4.72;;;;;;;5.92;100.00;102446.91;10428005;28;20148;-68
2023/01/30 18:17:04;;;;;;;33.45;6.32;;;;;;;5.90;100.00;102442.63;10428789;28;20041;-68
2023/01/30 18:22:04;;;;;;;10.85;4.80;;;;;;;5.81;100.00;102455.03;10426741;28;20060;-69
2023/01/30 18:27:04;;;;;;;15.57;5.70;;;;;;;5.81;100.00;102469.31;10433192;28;20053;-69
2023/01/30 18:32:05;;;;;;;19.25;3.90;;;;;;;5.89;100.00;102463.28;10409810;28;20033;-68
2023/01/30 18:37:05;;;;;;;19.92;5.63;;;;;;;5.86;100.00;102462.69;10421719;28;20030;-68
2023/01/30 18:42:06;;;;;;;14.50;4.22;;;;;;;5.75;100.00;102467.13;10425241;28;20037;-68
2023/01/30 18:47:07;;;;;;;15.15;3.83;;;;;;;5.98;100.00;102486.75;10423614;28;20041;-69
2023/01/30 18:52:07;;;;;;;10.45;3.83;;;;;;;6.32;100.00;102492.00;10433758;28;20042;-68
2023/01/30 18:57:08;;;;;;;19.83;3.28;;;;;;;6.40;100.00;102504.78;10425551;28;20128;-68
2023/01/30 19:02:11;;;;;;;12.60;4.70;;;;;;;6.12;100.00;102507.09;10463403;28;20040;-68
2023/01/30 19:07:11;;;;;;;11.70;4.53;;;;;;;5.97;100.00;102514.63;10439872;28;20040;-68
2023/01/30 19:17:31;;;;;;;12.65;5.50;;;;;;;5.69;100.00;102518.72;10426979;28;20393;-69
2023/01/30 19:22:31;;;;;;;20.15;5.25;;;;;;;5.62;100.00;102527.41;10429431;28;20073;-67
2023/01/30 19:27:35;;;;;;;21.30;4.00;;;;;;;5.54;100.00;102528.88;10427731;28;20030;-68
2023/01/30 19:32:35;;;;;;;25.38;6.00;;;;;;;5.60;100.00;102528.38;10419046;28;20030;-68
2023/01/30 19:37:37;;;;;;;7.20;4.03;;;;;;;5.63;100.00;102532.66;10419832;28;20029;-67
2023/01/30 19:42:38;;;;;;;18.17;5.55;;;;;;;5.49;100.00;102514.13;10415513;28;20041;-66
2023/01/30 19:47:38;;;;;;;16.25;4.38;;;;;;;5.42;100.00;102535.22;10415275;28;20038;-68
2023/01/30 19:52:39;;;;;;;21.83;4.35;;;;;;;5.33;100.00;102520.72;10450269;28;20065;-68
2023/01/30 19:57:40;;;;;;;22.52;4.65;;;;;;;5.27;100.00;102529.28;10418086;28;20121;-67
2023/01/30 20:02:40;;;;;;;18.73;4.70;;;;;;;5.27;100.00;102550.78;10419091;28;20033;-67
2023/01/30 20:07:41;;;;;;;14.60;4.65;;;;;;;5.45;100.00;102540.34;10422373;28;20056;-66
2023/01/30 20:12:41;;;;;;;25.17;5.88;;;;;;;5.65;100.00;102546.84;10418417;28;20083;-68
2023/01/30 20:17:42;;;;;;;21.08;5.03;;;;;;;5.57;100.00;102549.28;10414494;28;20418;-68
2023/01/30 20:22:42;;;;;;;11.07;3.80;;;;;;;5.47;100.00;102554.53;10418358;28;20504;-72
2023/01/30 20:27:44;;;;;;;20.13;5.05;;;;;;;5.36;100.00;102552.72;10422463;28;20034;-69
2023/01/30 20:32:44;;;;;;;9.52;4.30;;;;;;;5.18;100.00;102562.25;10421193;28;20535;-66
2023/01/30 20:37:45;;;;;;;19.42;4.53;;;;;;;5.23;100.00;102561.84;10420085;28;20057;-67
2023/01/30 20:42:47;;;;;;;18.25;3.60;;;;;;;5.33;100.00;102555.66;10420932;28;20033;-67
2023/01/30 20:47:47;;;;;;;9.52;4.60;;;;;;;5.21;100.00;102540.50;10420787;28;20030;-68
2023/01/30 20:52:51;;;;;;;13.02;4.07;;;;;;;5.15;100.00;102546.38;10421738;28;20026;-68
2023/01/30 20:57:53;;;;;;;15.32;4.30;;;;;;;5.04;100.00;102551.72;10451313;28;20048;-69
2023/01/30 21:02:53;;;;;;;16.35;4.05;;;;;;;4.88;100.00;102544.88;10421126;28;20034;-69
2023/01/30 21:07:53;;;;;;;16.52;3.65;;;;;;;4.77;100.00;102539.50;10420029;28;20496;-67
2023/01/30 21:12:54;;;;;;;13.65;4.57;;;;;;;4.81;100.00;102535.59;10435021;28;20041;-68
2023/01/30 21:17:54;;;;;;;9.20;4.72;;;;;;;4.71;100.00;102531.91;10419926;28;20488;-68
2023/01/30 21:22:55;;;;;;;11.63;5.13;;;;;;;4.56;100.00;102531.28;10420260;28;20053;-68
2023/01/30 21:27:55;;;;;;;25.92;5.40;;;;;;;4.47;100.00;102545.41;10417968;28;20030;-68
2023/01/30 21:32:56;;;;;;;28.00;4.93;;;;;;;4.39;100.00;102545.97;10419461;28;20036;-67
2023/01/30 21:43:15;;;;;;;13.82;4.78;;;;;;;4.24;100.00;102538.22;10445624;28;20059;-68
2023/01/30 21:48:16;;;;;;;18.77;4.70;;;;;;;4.17;100.00;102551.25;10419288;28;20450;-67
2023/01/30 21:53:16;;;;;;;17.95;6.07;;;;;;;4.14;100.00;102559.53;10418180;28;20084;-67
2023/01/30 21:58:17;;;;;;;14.27;4.25;;;;;;;4.11;100.00;102567.78;10418014;28;20092;-67
2023/01/30 22:03:17;;;;;;;19.17;4.65;;;;;;;4.07;100.00;102563.63;10418105;28;20429;-68
2023/01/30 22:08:18;;;;;;;11.20;3.90;;;;;;;4.00;100.00;102557.88;10399733;28;20040;-68
2023/01/30 22:13:19;;;;;;;13.70;5.32;;;;;;;3.94;100.00;102567.22;10417543;28;20433;-68
2023/01/30 22:18:19;;;;;;;14.73;4.22;;;;;;;3.83;100.00;102555.56;10418553;28;20056;-67
2023/01/30 22:23:19;;;;;;;15.18;4.80;;;;;;;3.73;100.00;102547.34;10416645;28;20056;-67
2023/01/30 22:28:20;;;;;;;23.08;5.40;;;;;;;3.67;100.00;102537.97;10419063;28;20420;-67
2023/01/30 22:33:20;;;;;;;17.48;4.03;;;;;;;3.70;100.00;102536.84;10416876;28;20029;-67
2023/01/30 22:38:21;;;;;;;26.15;7.95;;;;;;;3.62;100.00;102532.06;10416957;28;20064;-67
2023/01/30 22:43:22;;;;;;;20.60;5.18;;;;;;;3.56;100.00;102523.63;10414456;28;20362;-67
2023/01/30 22:48:22;;;;;;;13.45;4.43;;;;;;;3.43;100.00;102513.81;10415788;28;20065;-67
2023/01/30 22:53:23;;;;;;;7.90;4.35;;;;;;;3.34;100.00;102525.19;10416089;28;20393;-67
2023/01/30 22:58:23;;;;;;;15.73;4.45;;;;;;;3.25;100.00;102509.78;10416386;28;20044;-68
2023/01/30 23:03:24;;;;;;;16.67;4.90;;;;;;;3.13;100.00;102506.19;10415810;28;20052;-67
2023/01/30 23:08:24;;;;;;;12.25;4.00;;;;;;;3.10;100.00;102511.75;10416442;28;20072;-67
2023/01/30 23:13:24;;;;;;;21.13;5.32;;;;;;;3.13;100.00;102497.28;10417308;28;20033;-68
2023/01/30 23:23:44;;;;;;;17.17;4.57;;;;;;;3.10;100.00;102490.34;10414542;28;20501;-67
2023/01/30 23:28:44;;;;;;;22.52;4.72;;;;;;;3.15;100.00;102482.81;10429944;28;20041;-67
2023/01/30 23:33:45;;;;;;;13.02;4.68;;;;;;;3.23;100.00;102487.63;10415033;28;20045;-67
2023/01/30 23:38:49;;;;;;;26.73;5.03;;;;;;;3.27;100.00;102491.78;10414865;28;20033;-67